Center Cross, Virginia
Current Conditions -  °F | °C
As of 10:35 AM on Monday 22 Dec 2014 (Local Time) from KXSA Reporting Station
Moderate Rain Moderate Rain  
Wind Chill: 33°   Ceiling: 3600
Heat Index: 37°   Visibility: 3mi
Dew Point: 32°   Wind: 5mph
Humidity: 83%   Direction: 360°N
Pressure: 30.27"   Gusts: NA
Location:  37.8°N, 76.78°W
Report Text: KXSA 221535Z AUTO 36004KT 3SM RA OVC036 03/00 A3027 RMK AO2 T00280002
Loading
Personal Weather Stations






























Interactive Weather Map New forecast layout! Learn more

10-Day Weather Forecast

Advertisements
Track Severe Weather on mobile